Time;durP1;ratioP1;P1;durP2;ratioP2;P2;SDS_P1;SDS_P2;PMS_P1;PMS_P2;Temp;Humidity;BMP_temperature;BMP_pressure;BME280_temperature;BME280_humidity;BME280_pressure;Samples;Min_cycle;Max_cycle;Signal;HPM_P1;HPM_P2
2023/04/20 00:00:14;;;;;;;8.40;8.00;;;7.80;99.90;;;;;;5094534;28;20513;-83
2023/04/20 00:02:44;;;;;;;8.30;8.10;;;7.80;99.90;;;;;;5097162;27;20459;-81
2023/04/20 00:05:12;;;;;;;8.90;8.20;;;7.80;99.90;;;;;;5092456;28;21100;-82
2023/04/20 00:07:41;;;;;;;8.73;8.23;;;7.80;99.90;;;;;;5091448;28;20886;-83
2023/04/20 00:10:10;;;;;;;9.00;8.50;;;7.70;99.90;;;;;;5096612;28;20542;-81
2023/04/20 00:12:38;;;;;;;8.80;8.40;;;7.80;99.90;;;;;;5093882;28;21021;-82
2023/04/20 00:15:08;;;;;;;8.30;8.00;;;7.70;99.90;;;;;;5093261;28;20953;-81
2023/04/20 00:17:38;;;;;;;7.40;7.20;;;7.70;99.90;;;;;;5087940;28;20460;-82
2023/04/20 00:20:08;;;;;;;8.73;8.33;;;7.70;99.90;;;;;;5092578;28;20465;-81
2023/04/20 00:22:36;;;;;;;9.20;8.63;;;7.60;99.90;;;;;;5093255;28;20447;-83
2023/04/20 00:25:05;;;;;;;8.17;7.77;;;7.60;99.90;;;;;;5096815;28;20467;-82
2023/04/20 00:27:34;;;;;;;8.00;7.70;;;7.60;99.90;;;;;;5093602;28;20968;-82
2023/04/20 00:30:02;;;;;;;8.30;7.80;;;7.60;99.90;;;;;;5093109;28;22091;-84
2023/04/20 00:32:30;;;;;;;9.00;8.47;;;7.60;99.90;;;;;;5096118;28;21287;-85
2023/04/20 00:35:00;;;;;;;7.40;7.20;;;7.50;99.90;;;;;;5092942;28;21986;-84
2023/04/20 00:37:28;;;;;;;8.33;7.80;;;7.50;99.90;;;;;;5086509;28;20448;-83
2023/04/20 00:39:57;;;;;;;8.30;8.00;;;7.50;99.90;;;;;;5088447;28;20472;-82
2023/04/20 00:42:25;;;;;;;8.70;8.27;;;7.40;99.90;;;;;;5095350;28;20451;-83
2023/04/20 00:44:53;;;;;;;8.83;8.43;;;7.40;99.90;;;;;;5093131;28;20475;-83
2023/04/20 00:47:21;;;;;;;8.23;7.90;;;7.40;99.90;;;;;;5094152;28;20440;-81
2023/04/20 00:49:49;;;;;;;8.30;8.00;;;7.40;99.90;;;;;;5096481;28;20468;-81
2023/04/20 00:52:19;;;;;;;8.30;7.80;;;7.40;99.90;;;;;;5094365;28;21018;-82
2023/04/20 00:54:48;;;;;;;8.43;8.03;;;7.30;99.90;;;;;;5093671;28;20452;-82
2023/04/20 00:57:22;;;;;;;8.50;7.93;;;7.30;99.90;;;;;;5093099;28;20454;-82
2023/04/20 00:59:51;;;;;;;9.27;8.67;;;7.20;99.90;;;;;;5095448;28;20971;-82
2023/04/20 01:02:19;;;;;;;9.03;8.37;;;7.20;99.90;;;;;;5092413;28;20469;-82
2023/04/20 01:04:47;;;;;;;8.30;8.00;;;7.20;99.90;;;;;;5092326;28;20544;-82
2023/04/20 01:07:16;;;;;;;8.90;8.50;;;7.20;99.90;;;;;;5092466;28;20948;-82
2023/04/20 01:09:45;;;;;;;8.87;8.27;;;7.10;99.90;;;;;;5093870;28;20472;-81
2023/04/20 01:12:13;;;;;;;8.73;8.23;;;7.10;99.90;;;;;;5095532;28;20495;-81
2023/04/20 01:14:42;;;;;;;8.47;8.07;;;7.10;99.90;;;;;;5094197;28;20451;-81
2023/04/20 01:17:10;;;;;;;8.50;8.20;;;7.00;99.90;;;;;;5078072;28;20451;-81
2023/04/20 01:19:38;;;;;;;8.47;7.87;;;7.00;99.90;;;;;;5091596;28;20500;-81
2023/04/20 01:22:06;;;;;;;8.90;8.40;;;7.00;99.90;;;;;;5095916;28;20493;-82
2023/04/20 01:24:36;;;;;;;9.00;8.60;;;6.90;99.90;;;;;;5095709;28;20515;-81
2023/04/20 01:27:04;;;;;;;9.37;8.67;;;7.00;99.90;;;;;;5092837;28;20465;-81
2023/04/20 01:29:32;;;;;;;8.63;8.23;;;6.90;99.90;;;;;;5092504;28;20560;-81
2023/04/20 01:32:00;;;;;;;8.57;8.17;;;6.90;99.90;;;;;;5094390;28;20475;-81
2023/04/20 01:34:29;;;;;;;9.60;9.20;;;6.80;99.90;;;;;;5095564;28;20451;-82
2023/04/20 01:36:57;;;;;;;9.43;9.07;;;6.70;99.90;;;;;;5089875;28;20482;-81
2023/04/20 01:39:25;;;;;;;8.80;8.30;;;6.70;99.90;;;;;;5094900;28;20472;-80
2023/04/20 01:41:55;;;;;;;9.40;8.90;;;6.60;99.90;;;;;;5096839;28;20469;-82
2023/04/20 01:44:23;;;;;;;8.63;8.33;;;6.70;99.90;;;;;;5097769;27;20477;-81
2023/04/20 01:46:51;;;;;;;9.10;8.70;;;6.60;99.90;;;;;;5093162;28;20455;-81
2023/04/20 01:49:19;;;;;;;9.50;8.70;;;6.40;99.90;;;;;;5094448;27;20907;-82
2023/04/20 01:51:47;;;;;;;9.87;9.30;;;6.40;99.90;;;;;;5098627;28;20450;-83
2023/04/20 01:54:15;;;;;;;8.97;8.37;;;6.40;99.90;;;;;;5095701;28;20486;-83
2023/04/20 01:56:43;;;;;;;9.50;9.10;;;6.40;99.90;;;;;;5097215;28;20492;-84
2023/04/20 01:59:13;;;;;;;9.00;8.50;;;6.40;99.90;;;;;;5097135;28;20470;-83
2023/04/20 02:01:41;;;;;;;8.90;8.60;;;6.30;99.90;;;;;;5098600;27;20447;-81
2023/04/20 02:04:09;;;;;;;8.93;8.43;;;6.30;99.90;;;;;;5096208;28;20466;-82
2023/04/20 02:06:37;;;;;;;9.23;8.70;;;6.30;99.90;;;;;;5094922;28;20477;-80
2023/04/20 02:09:07;;;;;;;9.13;8.60;;;6.30;99.90;;;;;;5091327;27;20529;-81
2023/04/20 02:11:36;;;;;;;10.43;9.43;;;6.40;99.90;;;;;;5093971;28;20543;-81
2023/04/20 02:14:04;;;;;;;8.70;8.30;;;6.30;99.90;;;;;;5094623;28;20999;-80
2023/04/20 02:16:35;;;;;;;9.27;8.87;;;6.30;99.90;;;;;;5089996;28;20442;-81
2023/04/20 02:19:03;;;;;;;9.33;8.80;;;6.20;99.90;;;;;;5093313;28;20581;-80
2023/04/20 02:21:31;;;;;;;8.60;8.20;;;6.20;99.90;;;;;;5093429;27;20454;-81
2023/04/20 02:24:00;;;;;;;8.33;7.93;;;6.20;99.90;;;;;;5092219;28;20463;-80
2023/04/20 02:26:28;;;;;;;9.60;9.10;;;6.30;99.90;;;;;;5093455;28;20563;-81
2023/04/20 02:28:56;;;;;;;8.77;8.27;;;6.20;99.90;;;;;;5093982;28;21095;-80
2023/04/20 02:31:24;;;;;;;9.53;9.00;;;6.20;99.90;;;;;;5092610;27;20540;-81
2023/04/20 02:33:54;;;;;;;10.17;9.57;;;6.10;99.90;;;;;;5089142;28;21063;-82
2023/04/20 02:36:22;;;;;;;9.77;9.27;;;6.00;99.90;;;;;;5094871;27;20562;-81
2023/04/20 02:38:50;;;;;;;9.73;9.13;;;6.00;99.90;;;;;;5084193;28;20582;-81
2023/04/20 02:41:18;;;;;;;10.10;9.70;;;6.00;99.90;;;;;;5091997;28;20513;-81
2023/04/20 02:43:46;;;;;;;8.83;8.47;;;5.90;99.90;;;;;;5094431;27;20454;-81
2023/04/20 02:46:15;;;;;;;9.53;9.13;;;5.80;99.90;;;;;;5094561;27;20467;-81
2023/04/20 02:48:43;;;;;;;9.40;8.93;;;5.80;99.90;;;;;;5093807;28;20478;-81
2023/04/20 02:51:13;;;;;;;9.77;9.20;;;5.70;99.90;;;;;;5096826;27;20662;-84
2023/04/20 02:53:41;;;;;;;9.67;9.17;;;5.70;99.90;;;;;;5094796;27;20472;-83
2023/04/20 02:56:09;;;;;;;9.13;8.73;;;5.70;99.90;;;;;;5096195;28;20452;-80
2023/04/20 02:58:37;;;;;;;9.50;9.00;;;5.70;99.90;;;;;;5088463;28;20817;-83
2023/04/20 03:01:06;;;;;;;9.30;8.80;;;5.70;99.90;;;;;;5092064;28;20454;-84
2023/04/20 03:03:34;;;;;;;11.03;9.47;;;5.80;99.90;;;;;;5095011;28;20449;-82
2023/04/20 03:06:02;;;;;;;9.20;8.73;;;5.80;99.90;;;;;;5091869;28;20471;-81
2023/04/20 03:08:32;;;;;;;9.70;9.10;;;5.70;99.90;;;;;;5089358;27;20477;-80
2023/04/20 03:11:00;;;;;;;9.20;8.80;;;5.70;99.90;;;;;;5093837;28;20492;-81
2023/04/20 03:13:28;;;;;;;8.73;8.40;;;5.60;99.90;;;;;;5092537;28;21005;-80
2023/04/20 03:15:56;;;;;;;9.23;8.70;;;5.60;99.90;;;;;;5092882;28;20465;-80
2023/04/20 03:18:24;;;;;;;9.63;9.20;;;5.60;99.90;;;;;;5089098;27;20553;-82
2023/04/20 03:20:53;;;;;;;10.17;9.47;;;5.60;99.90;;;;;;5090086;28;20458;-81
2023/04/20 03:23:21;;;;;;;9.93;9.33;;;5.70;99.90;;;;;;5092385;28;20961;-80
2023/04/20 03:25:51;;;;;;;9.87;9.27;;;5.60;99.90;;;;;;5091470;28;20480;-79
2023/04/20 03:28:19;;;;;;;9.57;9.13;;;5.60;99.90;;;;;;5090366;28;20492;-81
2023/04/20 03:30:47;;;;;;;9.77;9.13;;;5.60;99.90;;;;;;5090672;28;22204;-81
2023/04/20 03:33:15;;;;;;;9.93;9.53;;;5.60;99.90;;;;;;5089997;28;20537;-83
2023/04/20 03:35:43;;;;;;;10.33;9.83;;;5.50;99.90;;;;;;5092141;28;20456;-81
2023/04/20 03:38:11;;;;;;;9.60;9.10;;;5.40;99.90;;;;;;5085307;28;20522;-80
2023/04/20 03:40:39;;;;;;;10.90;10.20;;;5.40;99.90;;;;;;5090296;28;20453;-81
2023/04/20 03:43:10;;;;;;;10.90;10.13;;;5.30;99.90;;;;;;5089807;28;20482;-81
2023/04/20 03:45:38;;;;;;;9.70;9.20;;;5.30;99.90;;;;;;5092686;28;20480;-79
2023/04/20 03:48:06;;;;;;;10.10;9.70;;;5.30;99.90;;;;;;5086387;27;21013;-80
2023/04/20 03:50:34;;;;;;;10.23;9.33;;;5.30;99.90;;;;;;5089235;28;20555;-80
2023/04/20 03:53:02;;;;;;;9.60;9.20;;;5.20;99.90;;;;;;5092615;28;20453;-81
2023/04/20 03:55:30;;;;;;;9.87;9.40;;;5.20;99.90;;;;;;5092684;28;20799;-81
2023/04/20 03:57:58;;;;;;;9.60;9.00;;;5.30;99.90;;;;;;5092972;28;20472;-82
2023/04/20 04:00:28;;;;;;;9.50;9.00;;;5.30;99.90;;;;;;5090014;27;20463;-82
2023/04/20 04:02:56;;;;;;;9.83;9.23;;;5.30;99.90;;;;;;5086457;28;20534;-80
2023/04/20 04:05:25;;;;;;;10.37;9.80;;;5.30;99.90;;;;;;5091020;28;20585;-82
2023/04/20 04:07:53;;;;;;;9.27;8.77;;;5.20;99.90;;;;;;5089863;28;20452;-80
2023/04/20 04:10:23;;;;;;;10.33;9.63;;;5.20;99.90;;;;;;5089457;28;20454;-80
2023/04/20 04:12:51;;;;;;;9.53;8.87;;;5.20;99.90;;;;;;5075719;28;20445;-81
2023/04/20 04:15:20;;;;;;;8.67;8.37;;;5.20;99.90;;;;;;5095523;28;20433;-81
2023/04/20 04:17:50;;;;;;;10.37;9.67;;;5.10;99.90;;;;;;5094068;28;21249;-82
2023/04/20 04:20:18;;;;;;;10.03;9.53;;;5.10;99.90;;;;;;5073745;28;20457;-83
2023/04/20 04:22:46;;;;;;;10.20;9.67;;;5.20;99.90;;;;;;5077005;28;20968;-81
2023/04/20 04:25:15;;;;;;;11.80;11.20;;;5.20;99.90;;;;;;5093678;28;20638;-81
2023/04/20 04:27:45;;;;;;;10.67;10.03;;;5.20;99.90;;;;;;5088837;28;20542;-80
2023/04/20 04:30:14;;;;;;;10.73;10.13;;;5.20;99.90;;;;;;5090320;28;20449;-80
2023/04/20 04:32:43;;;;;;;10.17;9.57;;;5.10;99.90;;;;;;5089654;28;20460;-79
2023/04/20 04:35:13;;;;;;;10.63;10.13;;;5.10;99.90;;;;;;5091427;27;20444;-81
2023/04/20 04:37:41;;;;;;;10.93;10.37;;;5.10;99.90;;;;;;5083179;28;20454;-83
2023/04/20 04:40:10;;;;;;;10.73;10.00;;;5.00;99.90;;;;;;5093809;28;20533;-80
2023/04/20 04:42:39;;;;;;;11.17;10.43;;;5.10;99.90;;;;;;5094507;28;20457;-80
2023/04/20 04:45:09;;;;;;;11.13;10.53;;;5.10;99.90;;;;;;5092199;28;20468;-80
2023/04/20 04:47:37;;;;;;;10.90;10.27;;;5.10;99.90;;;;;;5092916;28;20458;-80
2023/04/20 04:50:08;;;;;;;11.07;9.90;;;5.10;99.90;;;;;;5090749;28;20480;-80
2023/04/20 04:52:37;;;;;;;10.37;9.80;;;5.10;99.90;;;;;;5093257;28;20804;-80
2023/04/20 04:55:08;;;;;;;10.80;10.10;;;5.10;99.90;;;;;;5092954;28;21950;-81
2023/04/20 04:57:37;;;;;;;10.97;10.13;;;5.00;99.90;;;;;;5091942;28;20468;-80
2023/04/20 05:00:08;;;;;;;11.63;10.97;;;5.00;99.90;;;;;;5073200;28;20480;-80
2023/04/20 05:02:36;;;;;;;11.60;10.80;;;5.10;99.90;;;;;;5071612;28;20536;-81
2023/04/20 05:05:07;;;;;;;11.87;11.13;;;5.20;99.90;;;;;;5090157;28;20463;-81
2023/04/20 05:07:38;;;;;;;10.30;9.83;;;5.20;99.90;;;;;;5089378;28;20469;-80
2023/04/20 05:10:08;;;;;;;10.70;10.20;;;5.20;99.90;;;;;;5098365;28;20510;-80
2023/04/20 05:12:36;;;;;;;11.80;11.03;;;5.20;99.90;;;;;;5097087;28;20454;-81
2023/04/20 05:15:05;;;;;;;11.10;10.40;;;5.20;99.90;;;;;;5096367;28;20460;-80
2023/04/20 05:17:33;;;;;;;11.83;11.17;;;5.20;99.90;;;;;;5092119;28;20464;-81
2023/04/20 05:20:02;;;;;;;12.00;11.30;;;5.30;99.90;;;;;;5093990;28;20542;-82
2023/04/20 05:22:31;;;;;;;12.77;12.17;;;5.20;99.90;;;;;;5095310;28;20484;-80
2023/04/20 05:25:01;;;;;;;11.53;10.93;;;5.20;99.90;;;;;;5094204;28;20554;-81
2023/04/20 05:27:29;;;;;;;11.33;10.60;;;5.30;99.90;;;;;;5100174;28;20479;-80
2023/04/20 05:29:57;;;;;;;11.80;11.13;;;5.20;99.90;;;;;;5092281;28;20481;-79
2023/04/20 05:32:43;;;;;;;11.70;10.90;;;5.30;99.90;;;;;;5096886;28;20450;-82
2023/04/20 05:35:12;;;;;;;11.50;10.80;;;5.30;99.90;;;;;;5096489;28;20462;-79
2023/04/20 05:37:40;;;;;;;12.63;11.37;;;5.30;99.90;;;;;;5094243;28;20459;-81
2023/04/20 05:40:10;;;;;;;12.20;11.47;;;5.50;99.90;;;;;;5094107;28;20476;-81
2023/04/20 05:42:39;;;;;;;13.97;12.97;;;5.60;99.90;;;;;;5093374;28;20523;-80
2023/04/20 05:45:09;;;;;;;13.43;12.60;;;5.70;99.90;;;;;;5094780;28;20448;-78
2023/04/20 05:47:37;;;;;;;13.50;12.33;;;5.80;99.90;;;;;;5092584;28;20474;-82
2023/04/20 05:50:06;;;;;;;12.20;11.60;;;5.80;99.90;;;;;;5092964;28;20564;-81
2023/04/20 05:52:35;;;;;;;12.60;11.90;;;5.90;99.90;;;;;;5090854;28;20465;-81
2023/04/20 05:55:03;;;;;;;11.50;10.90;;;6.10;99.90;;;;;;5091720;28;20445;-81
2023/04/20 05:57:32;;;;;;;13.03;12.23;;;6.20;99.90;;;;;;5075933;28;20855;-81
2023/04/20 06:00:02;;;;;;;13.47;12.47;;;6.30;99.90;;;;;;5095435;27;20527;-80
2023/04/20 06:02:30;;;;;;;12.60;11.83;;;6.50;99.90;;;;;;5096317;28;20502;-80
2023/04/20 06:04:59;;;;;;;12.40;11.87;;;6.70;99.90;;;;;;5087185;28;20511;-79
2023/04/20 06:07:28;;;;;;;12.40;11.77;;;6.80;99.90;;;;;;5095238;28;20489;-81
2023/04/20 06:09:56;;;;;;;12.33;11.83;;;7.00;99.90;;;;;;5095924;28;20523;-82
2023/04/20 06:12:24;;;;;;;12.87;12.07;;;7.30;99.90;;;;;;5095772;28;20463;-81
2023/04/20 06:14:55;;;;;;;13.00;12.20;;;7.50;99.90;;;;;;5096085;28;20520;-80
2023/04/20 06:17:23;;;;;;;13.30;12.63;;;7.90;99.90;;;;;;5093618;28;20449;-81
2023/04/20 06:19:51;;;;;;;14.70;13.90;;;8.10;99.90;;;;;;5094382;28;20557;-79
2023/04/20 06:22:20;;;;;;;13.93;13.13;;;8.30;99.90;;;;;;5095067;27;20460;-79
2023/04/20 06:24:48;;;;;;;13.10;12.50;;;8.50;99.90;;;;;;5093992;28;20462;-82
2023/04/20 06:27:16;;;;;;;13.73;13.03;;;8.80;99.90;;;;;;5092574;28;20535;-81
2023/04/20 06:29:44;;;;;;;13.80;13.10;;;9.10;99.90;;;;;;5091161;28;20500;-81
2023/04/20 06:32:14;;;;;;;14.00;13.30;;;9.20;99.90;;;;;;5095693;28;20452;-81
2023/04/20 06:34:42;;;;;;;13.93;13.17;;;9.40;99.90;;;;;;5096647;27;20481;-80
2023/04/20 06:37:10;;;;;;;13.17;12.53;;;9.60;99.90;;;;;;5095244;28;20446;-80
2023/04/20 06:39:38;;;;;;;13.53;12.70;;;9.60;99.90;;;;;;5095518;28;20566;-79
2023/04/20 06:42:07;;;;;;;13.60;12.70;;;9.70;99.90;;;;;;5096113;28;21071;-80
2023/04/20 06:44:35;;;;;;;14.37;13.47;;;9.60;99.90;;;;;;5096334;28;20555;-80
2023/04/20 06:47:03;;;;;;;21.37;19.30;;;9.30;99.90;;;;;;5094055;28;20475;-81
2023/04/20 06:49:33;;;;;;;16.60;15.20;;;9.10;99.90;;;;;;5095441;28;20480;-80
2023/04/20 06:52:01;;;;;;;14.53;13.73;;;9.10;99.90;;;;;;5095239;28;21010;-82
2023/04/20 06:54:29;;;;;;;15.13;14.20;;;9.10;99.90;;;;;;5092795;28;20546;-82
2023/04/20 06:56:57;;;;;;;14.90;14.20;;;9.10;99.90;;;;;;5095359;28;20452;-80
2023/04/20 06:59:25;;;;;;;15.20;14.20;;;9.30;99.90;;;;;;5092345;28;20476;-79
2023/04/20 07:01:53;;;;;;;14.50;13.80;;;9.60;99.90;;;;;;5090653;28;20698;-81
2023/04/20 07:04:22;;;;;;;14.67;14.07;;;10.00;99.90;;;;;;5096566;28;20492;-80
2023/04/20 07:06:51;;;;;;;14.93;13.87;;;10.30;99.90;;;;;;5092715;28;20446;-80
2023/04/20 07:09:21;;;;;;;14.80;14.10;;;10.50;99.90;;;;;;5090298;27;20499;-79
2023/04/20 07:11:50;;;;;;;16.17;15.10;;;10.60;99.90;;;;;;5093832;28;20519;-79
2023/04/20 07:14:19;;;;;;;14.53;13.70;;;10.70;99.90;;;;;;5074368;28;20537;-82
2023/04/20 07:16:47;;;;;;;15.80;14.70;;;10.90;99.90;;;;;;5090952;27;20447;-81
2023/04/20 07:19:15;;;;;;;14.50;13.70;;;10.90;99.90;;;;;;5094554;28;20549;-79
2023/04/20 07:21:44;;;;;;;14.27;13.50;;;10.60;99.90;;;;;;5092367;28;20467;-81
2023/04/20 07:24:13;;;;;;;14.20;13.43;;;10.50;99.90;;;;;;5094726;27;20460;-81
2023/04/20 07:26:41;;;;;;;14.40;13.60;;;10.40;99.90;;;;;;5094993;28;20451;-80
2023/04/20 07:29:10;;;;;;;14.43;13.63;;;10.50;99.90;;;;;;5092264;28;20830;-79
2023/04/20 07:31:38;;;;;;;17.00;15.90;;;10.40;99.90;;;;;;5089121;28;20457;-80
2023/04/20 07:34:06;;;;;;;15.17;14.17;;;10.30;99.90;;;;;;5090381;27;20450;-79
2023/04/20 07:36:35;;;;;;;15.20;14.43;;;10.20;99.90;;;;;;5092302;28;20456;-80
2023/04/20 07:39:04;;;;;;;14.53;13.83;;;10.10;99.90;;;;;;5094549;28;20494;-80
2023/04/20 07:41:33;;;;;;;14.87;14.00;;;9.90;99.90;;;;;;5095876;27;20497;-80
2023/04/20 07:44:01;;;;;;;14.93;14.23;;;9.90;99.90;;;;;;5092224;27;20868;-80
2023/04/20 07:46:30;;;;;;;15.43;14.33;;;10.00;99.90;;;;;;5093235;27;20461;-80
2023/04/20 07:48:58;;;;;;;14.20;13.27;;;10.10;99.90;;;;;;5093471;28;20554;-80
2023/04/20 07:51:29;;;;;;;14.93;13.93;;;10.10;99.90;;;;;;5091868;27;20507;-79
2023/04/20 07:53:57;;;;;;;14.00;13.20;;;10.20;99.90;;;;;;5091756;28;20453;-79
2023/04/20 07:56:25;;;;;;;14.50;13.70;;;10.20;99.90;;;;;;5093894;28;20446;-80
2023/04/20 07:58:54;;;;;;;14.53;13.73;;;10.20;99.90;;;;;;5093221;28;21188;-81
2023/04/20 08:01:25;;;;;;;14.33;13.40;;;10.00;99.90;;;;;;5094714;28;20463;-81
2023/04/20 08:03:54;;;;;;;14.40;13.60;;;10.00;99.90;;;;;;5093949;28;20452;-82
2023/04/20 08:06:23;;;;;;;14.87;14.03;;;10.00;99.90;;;;;;5092753;28;20498;-81
2023/04/20 08:08:51;;;;;;;15.30;14.40;;;10.00;99.90;;;;;;5089319;28;20482;-79
2023/04/20 08:11:20;;;;;;;15.63;14.60;;;9.70;99.90;;;;;;5093984;28;20457;-81
2023/04/20 08:13:48;;;;;;;15.57;14.57;;;9.60;99.90;;;;;;5092593;27;20466;-80
2023/04/20 08:16:18;;;;;;;16.27;15.37;;;9.40;99.90;;;;;;5089057;28;20468;-79
2023/04/20 08:18:46;;;;;;;15.43;14.53;;;9.40;99.90;;;;;;5090967;28;20953;-82
2023/04/20 08:21:14;;;;;;;16.67;15.63;;;9.40;99.90;;;;;;5092186;28;20499;-81
2023/04/20 08:23:42;;;;;;;16.60;15.50;;;9.40;99.90;;;;;;5091386;28;20468;-81
2023/04/20 08:26:15;;;;;;;15.47;14.57;;;9.40;99.90;;;;;;5094097;28;20461;-79
2023/04/20 08:28:44;;;;;;;15.70;14.70;;;9.20;99.90;;;;;;5092697;28;20484;-80
2023/04/20 08:31:13;;;;;;;15.70;14.70;;;9.10;99.90;;;;;;5091233;28;20447;-80
2023/04/20 08:33:43;;;;;;;15.97;15.07;;;8.90;99.90;;;;;;5089218;28;20505;-80
2023/04/20 08:36:11;;;;;;;15.93;15.03;;;8.80;99.90;;;;;;5092342;28;20969;-80
2023/04/20 08:38:39;;;;;;;16.47;15.37;;;8.80;99.90;;;;;;5090273;27;21306;-81
2023/04/20 08:41:08;;;;;;;14.70;13.90;;;8.80;99.90;;;;;;5093618;28;20536;-80
2023/04/20 08:43:36;;;;;;;16.47;15.37;;;8.80;99.90;;;;;;5090567;28;20456;-81
2023/04/20 08:46:05;;;;;;;15.80;14.90;;;8.80;99.90;;;;;;5093658;28;22139;-81
2023/04/20 08:48:36;;;;;;;16.10;15.00;;;8.70;99.90;;;;;;5088958;28;20763;-83
2023/04/20 08:51:06;;;;;;;15.83;14.83;;;8.60;99.90;;;;;;5089283;28;20444;-80
2023/04/20 08:53:34;;;;;;;15.27;14.20;;;8.60;99.90;;;;;;5089190;28;21128;-80
2023/04/20 08:56:03;;;;;;;15.13;14.13;;;8.60;99.90;;;;;;5092114;28;20760;-79
2023/04/20 08:58:32;;;;;;;15.30;14.40;;;8.60;99.90;;;;;;5090297;28;20459;-80
2023/04/20 09:01:00;;;;;;;15.30;14.27;;;8.60;99.90;;;;;;5091255;28;20478;-81
2023/04/20 09:03:33;;;;;;;15.83;14.93;;;8.60;99.90;;;;;;5095642;28;21152;-80
2023/04/20 09:06:01;;;;;;;15.90;14.90;;;8.60;99.90;;;;;;5091786;28;20540;-80
2023/04/20 09:08:39;;;;;;;15.90;14.70;;;8.60;99.90;;;;;;5084907;28;20484;-82
2023/04/20 09:11:08;;;;;;;15.60;14.60;;;8.50;99.90;;;;;;5090156;28;20443;-82
2023/04/20 09:13:36;;;;;;;15.10;14.23;;;8.50;99.90;;;;;;5091252;28;20470;-81
2023/04/20 09:16:11;;;;;;;16.80;15.60;;;8.50;99.90;;;;;;5091463;28;20509;-80
2023/04/20 09:18:39;;;;;;;16.07;15.07;;;8.50;99.90;;;;;;5090022;28;20478;-80
2023/04/20 09:21:11;;;;;;;15.83;15.03;;;8.50;99.90;;;;;;5092848;28;20455;-80
2023/04/20 09:23:41;;;;;;;16.47;15.53;;;8.60;1.00;;;;;;5094829;28;20448;-81
2023/04/20 09:26:17;;;;;;;16.33;15.20;;;8.60;99.90;;;;;;5090431;28;21262;-81
2023/04/20 09:28:46;;;;;;;16.70;15.70;;;8.60;1.00;;;;;;5094458;28;20543;-81
2023/04/20 09:31:18;;;;;;;15.90;15.00;;;8.70;99.90;;;;;;5091170;28;20476;-81
2023/04/20 09:33:56;;;;;;;15.50;14.70;;;8.70;99.90;;;;;;5092844;28;20514;-83
2023/04/20 09:36:24;;;;;;;16.57;15.47;;;8.70;1.00;;;;;;5090328;28;20456;-81
2023/04/20 09:39:04;;;;;;;15.90;15.10;;;8.80;1.00;;;;;;5089994;28;20464;-81
2023/04/20 09:41:34;;;;;;;15.70;14.80;;;8.80;1.00;;;;;;5092344;28;20448;-80
2023/04/20 09:44:03;;;;;;;14.40;13.70;;;8.80;1.00;;;;;;5093089;28;20809;-81
2023/04/20 09:46:32;;;;;;;15.27;14.43;;;8.70;1.00;;;;;;5091570;28;20589;-80
2023/04/20 09:49:03;;;;;;;15.10;14.27;;;8.80;1.00;;;;;;5089491;28;20564;-80
2023/04/20 09:51:34;;;;;;;15.67;14.77;;;8.70;1.00;;;;;;5091256;28;20459;-80
2023/04/20 09:54:05;;;;;;;16.57;15.57;;;8.80;1.00;;;;;;5091820;28;20455;-80
2023/04/20 09:56:34;;;;;;;16.50;15.60;;;8.90;1.00;;;;;;5095024;28;20537;-80
2023/04/20 09:59:03;;;;;;;15.80;15.00;;;8.90;1.00;;;;;;5096020;27;20562;-80
2023/04/20 10:01:33;;;;;;;16.17;15.17;;;8.90;1.00;;;;;;5097937;28;20961;-82
2023/04/20 10:04:03;;;;;;;16.30;15.30;;;8.90;1.00;;;;;;5097651;28;20450;-81
2023/04/20 10:06:33;;;;;;;15.60;14.80;;;9.00;1.00;;;;;;5097348;28;20478;-81
2023/04/20 10:09:05;;;;;;;15.70;14.90;;;8.90;1.00;;;;;;5089568;28;20521;-80
2023/04/20 10:11:35;;;;;;;16.60;15.57;;;8.80;1.00;;;;;;5097956;28;20444;-82
2023/04/20 10:14:21;;;;;;;14.90;14.07;;;8.90;1.00;;;;;;5097709;27;20442;-82
2023/04/20 10:17:00;;;;;;;15.57;14.67;;;8.80;1.00;;;;;;5097857;28;20459;-81
2023/04/20 10:19:38;;;;;;;15.43;14.70;;;8.80;1.00;;;;;;5095260;28;20483;-81
2023/04/20 10:22:07;;;;;;;15.67;14.60;;;8.90;1.00;;;;;;5097927;28;20531;-81
2023/04/20 10:24:37;;;;;;;15.87;14.83;;;8.90;1.00;;;;;;5096145;28;20455;-80
2023/04/20 10:27:16;;;;;;;15.50;14.53;;;8.90;1.00;;;;;;5097385;28;20473;-81
2023/04/20 10:29:45;;;;;;;15.97;14.93;;;8.90;1.00;;;;;;5094514;28;20932;-80
2023/04/20 10:32:22;;;;;;;14.87;13.77;;;8.80;1.00;;;;;;5096706;27;20455;-81
2023/04/20 10:35:02;;;;;;;16.60;15.63;;;8.80;1.00;;;;;;5096454;28;20473;-82
2023/04/20 10:37:30;;;;;;;16.50;15.60;;;8.90;1.00;;;;;;5095445;28;20455;-80
2023/04/20 10:40:03;;;;;;;17.47;16.40;;;8.90;1.00;;;;;;5092866;28;20464;-80
2023/04/20 10:42:42;;;;;;;17.50;16.50;;;9.00;1.00;;;;;;5097467;28;20801;-80
2023/04/20 10:45:11;;;;;;;17.37;16.03;;;9.10;1.00;;;;;;5093821;28;20453;-80
2023/04/20 10:47:40;;;;;;;17.03;15.97;;;9.20;1.00;;;;;;5096315;28;20464;-81
2023/04/20 10:50:10;;;;;;;17.03;16.13;;;9.30;1.00;;;;;;5093103;27;20939;-80
2023/04/20 10:52:40;;;;;;;16.17;15.47;;;9.30;1.00;;;;;;5098969;28;20813;-80
2023/04/20 10:55:20;;;;;;;17.70;16.50;;;9.30;1.00;;;;;;5097509;28;20451;-80
2023/04/20 10:57:48;;;;;;;16.37;15.43;;;9.30;1.00;;;;;;5092324;28;20462;-81
2023/04/20 11:00:19;;;;;;;17.13;16.07;;;9.30;1.00;;;;;;5093033;28;20454;-80
2023/04/20 11:02:49;;;;;;;16.10;15.17;;;9.30;1.00;;;;;;5090803;28;20449;-80
2023/04/20 11:05:18;;;;;;;16.70;15.80;;;9.30;1.00;;;;;;5096156;28;20576;-80
2023/04/20 11:07:50;;;;;;;16.27;15.37;;;9.20;1.00;;;;;;5093869;28;20498;-80
2023/04/20 11:10:20;;;;;;;15.90;15.10;;;9.20;1.00;;;;;;5092688;28;20506;-81
2023/04/20 11:12:49;;;;;;;15.97;15.27;;;9.20;15.00;;;;;;5077017;28;20480;-81
2023/04/20 11:15:18;;;;;;;15.67;14.87;;;9.20;1.00;;;;;;5076974;28;20451;-81
2023/04/20 11:17:46;;;;;;;17.07;16.10;;;9.20;53.90;;;;;;5094586;28;20459;-81
2023/04/20 11:20:17;;;;;;;17.13;16.13;;;9.30;9.20;;;;;;5093040;28;20491;-80
2023/04/20 11:22:56;;;;;;;15.90;15.10;;;9.40;99.90;;;;;;5096653;27;20484;-80
2023/04/20 11:25:26;;;;;;;16.23;15.33;;;9.40;99.90;;;;;;5091567;28;20550;-81
2023/04/20 11:28:06;;;;;;;14.80;14.20;;;9.30;99.90;;;;;;5093977;28;20460;-81
2023/04/20 11:30:40;;;;;;;16.13;15.33;;;9.40;99.90;;;;;;5093866;28;20615;-81
2023/04/20 11:33:08;;;;;;;15.50;14.90;;;9.40;99.90;;;;;;5097772;28;20447;-82
2023/04/20 11:35:37;;;;;;;16.67;15.83;;;9.30;99.90;;;;;;5078345;28;20461;-81
2023/04/20 11:38:06;;;;;;;16.53;15.77;;;9.30;99.90;;;;;;5092521;27;20463;-81
2023/04/20 11:40:36;;;;;;;16.80;15.97;;;9.30;99.90;;;;;;5095689;28;20440;-81
2023/04/20 11:43:04;;;;;;;16.67;15.87;;;9.20;99.90;;;;;;5092749;28;20540;-81
2023/04/20 11:45:33;;;;;;;16.80;15.90;;;9.10;99.90;;;;;;5075744;28;20808;-82
2023/04/20 11:48:05;;;;;;;16.30;15.60;;;9.00;99.90;;;;;;5093828;28;20947;-83
2023/04/20 11:50:33;;;;;;;16.73;16.03;;;9.00;99.90;;;;;;5095194;28;20529;-80
2023/04/20 11:53:02;;;;;;;17.30;16.27;;;9.00;99.90;;;;;;5095897;28;20473;-82
2023/04/20 11:55:30;;;;;;;16.53;15.83;;;9.00;1.00;;;;;;5096155;28;20459;-80
2023/04/20 11:58:00;;;;;;;16.63;15.73;;;9.00;1.00;;;;;;5096210;28;20976;-80
2023/04/20 12:00:28;;;;;;;16.43;15.53;;;9.10;1.00;;;;;;5092484;28;20460;-81
2023/04/20 12:02:56;;;;;;;17.03;16.23;;;9.00;1.00;;;;;;5091120;28;20447;-82
2023/04/20 12:05:25;;;;;;;16.73;15.83;;;9.00;1.00;;;;;;5091035;28;20461;-81
2023/04/20 12:07:53;;;;;;;16.87;16.07;;;9.00;1.00;;;;;;5092946;28;20568;-81
2023/04/20 12:10:22;;;;;;;16.37;15.60;;;9.00;1.00;;;;;;5090797;28;20480;-81
2023/04/20 12:12:50;;;;;;;16.77;15.97;;;9.00;1.00;;;;;;5094605;28;20463;-80
2023/04/20 12:15:19;;;;;;;17.03;16.23;;;8.90;99.90;;;;;;5094082;27;20497;-80
2023/04/20 12:17:47;;;;;;;17.17;16.37;;;8.90;1.00;;;;;;5093585;28;20456;-80
2023/04/20 12:20:16;;;;;;;18.53;17.37;;;8.90;1.00;;;;;;5092043;28;20469;-80
2023/04/20 12:22:44;;;;;;;18.10;17.23;;;9.00;99.90;;;;;;5095175;28;20558;-81
2023/04/20 12:25:12;;;;;;;18.40;17.50;;;9.10;99.90;;;;;;5093619;28;20479;-80
2023/04/20 12:27:41;;;;;;;17.60;16.70;;;9.10;99.90;;;;;;5095266;28;20476;-81
2023/04/20 12:30:10;;;;;;;19.00;18.00;;;9.10;1.00;;;;;;5090051;28;20805;-82
2023/04/20 12:32:40;;;;;;;20.00;18.63;;;9.10;99.90;;;;;;5077774;28;20985;-81
2023/04/20 12:35:09;;;;;;;19.73;18.53;;;9.00;99.90;;;;;;5075577;28;20458;-81
2023/04/20 12:37:37;;;;;;;19.40;18.40;;;9.10;99.90;;;;;;5091575;28;20678;-81
2023/04/20 12:40:07;;;;;;;18.87;17.93;;;9.00;1.00;;;;;;5065788;28;20477;-82
2023/04/20 12:42:35;;;;;;;19.33;18.23;;;9.10;1.00;;;;;;5093471;28;20448;-83
2023/04/20 12:45:04;;;;;;;20.43;19.27;;;9.10;1.00;;;;;;5097719;28;20466;-82
2023/04/20 12:47:32;;;;;;;20.63;19.33;;;9.10;1.00;;;;;;5076859;28;21042;-81
2023/04/20 12:50:02;;;;;;;22.07;20.57;;;9.10;99.90;;;;;;5092620;28;21068;-81
2023/04/20 12:52:30;;;;;;;21.23;20.00;;;9.20;1.00;;;;;;5092555;28;20532;-81
2023/04/20 12:54:58;;;;;;;22.50;21.10;;;9.20;99.90;;;;;;5093581;28;20457;-80